sensor_id;sensor_type;location;lat;lon;timestamp;temperature;humidity
8872;DHT22;4472;52.092;9.820;2023-12-20T00:01:11;7.90;99.90
8872;DHT22;4472;52.092;9.820;2023-12-20T00:03:58;8.00;99.90
8872;DHT22;4472;52.092;9.820;2023-12-20T00:06:45;8.00;99.90
8872;DHT22;4472;52.092;9.820;2023-12-20T00:09:32;7.90;99.90
8872;DHT22;4472;52.092;9.820;2023-12-20T00:12:19;7.90;99.90
8872;DHT22;4472;52.092;9.820;2023-12-20T00:15:07;7.90;99.90
8872;DHT22;4472;52.092;9.820;2023-12-20T00:17:56;7.80;99.90
8872;DHT22;4472;52.092;9.820;2023-12-20T00:20:43;7.80;99.90
8872;DHT22;4472;52.092;9.820;2023-12-20T00:23:30;7.80;99.90
8872;DHT22;4472;52.092;9.820;2023-12-20T00:26:17;7.80;99.90
8872;DHT22;4472;52.092;9.820;2023-12-20T00:29:04;7.80;99.90
8872;DHT22;4472;52.092;9.820;2023-12-20T00:31:52;7.80;99.90
8872;DHT22;4472;52.092;9.820;2023-12-20T00:34:40;7.80;99.90
8872;DHT22;4472;52.092;9.820;2023-12-20T00:37:27;7.80;99.90
8872;DHT22;4472;52.092;9.820;2023-12-20T00:40:14;7.80;99.90
8872;DHT22;4472;52.092;9.820;2023-12-20T00:43:02;7.90;99.90
8872;DHT22;4472;52.092;9.820;2023-12-20T00:45:49;7.90;99.90
8872;DHT22;4472;52.092;9.820;2023-12-20T00:48:36;7.90;99.90
8872;DHT22;4472;52.092;9.820;2023-12-20T00:51:25;7.80;99.90
8872;DHT22;4472;52.092;9.820;2023-12-20T00:54:12;7.80;99.90
8872;DHT22;4472;52.092;9.820;2023-12-20T00:56:59;7.80;99.90
8872;DHT22;4472;52.092;9.820;2023-12-20T00:59:46;7.80;99.90
8872;DHT22;4472;52.092;9.820;2023-12-20T01:02:33;7.80;99.90
8872;DHT22;4472;52.092;9.820;2023-12-20T01:05:21;7.80;99.90
8872;DHT22;4472;52.092;9.820;2023-12-20T01:08:22;7.80;99.90
8872;DHT22;4472;52.092;9.820;2023-12-20T01:11:10;7.70;99.90
8872;DHT22;4472;52.092;9.820;2023-12-20T01:13:57;7.60;99.90
8872;DHT22;4472;52.092;9.820;2023-12-20T01:16:44;7.50;99.90
8872;DHT22;4472;52.092;9.820;2023-12-20T01:19:31;7.40;99.90
8872;DHT22;4472;52.092;9.820;2023-12-20T01:22:19;7.40;99.90
8872;DHT22;4472;52.092;9.820;2023-12-20T01:25:07;7.40;99.90
8872;DHT22;4472;52.092;9.820;2023-12-20T01:27:55;7.40;99.90
8872;DHT22;4472;52.092;9.820;2023-12-20T01:30:42;7.30;99.90
8872;DHT22;4472;52.092;9.820;2023-12-20T01:33:29;7.20;99.90
8872;DHT22;4472;52.092;9.820;2023-12-20T01:36:16;7.20;99.90
8872;DHT22;4472;52.092;9.820;2023-12-20T01:39:03;7.10;99.90
8872;DHT22;4472;52.092;9.820;2023-12-20T01:41:52;7.00;99.90
8872;DHT22;4472;52.092;9.820;2023-12-20T01:44:39;7.00;99.90
8872;DHT22;4472;52.092;9.820;2023-12-20T01:47:30;6.80;99.90
8872;DHT22;4472;52.092;9.820;2023-12-20T01:50:17;6.80;99.90
8872;DHT22;4472;52.092;9.820;2023-12-20T01:53:05;6.70;99.90
8872;DHT22;4472;52.092;9.820;2023-12-20T01:55:55;6.70;99.90
8872;DHT22;4472;52.092;9.820;2023-12-20T01:58:45;6.60;99.90
8872;DHT22;4472;52.092;9.820;2023-12-20T02:01:33;6.60;99.90
8872;DHT22;4472;52.092;9.820;2023-12-20T02:04:21;6.50;99.90
8872;DHT22;4472;52.092;9.820;2023-12-20T02:07:08;6.50;99.90
8872;DHT22;4472;52.092;9.820;2023-12-20T02:09:56;6.50;99.90
8872;DHT22;4472;52.092;9.820;2023-12-20T02:12:44;6.60;99.90
8872;DHT22;4472;52.092;9.820;2023-12-20T02:15:32;6.60;99.90
8872;DHT22;4472;52.092;9.820;2023-12-20T02:18:19;6.60;99.90
8872;DHT22;4472;52.092;9.820;2023-12-20T02:21:06;6.60;99.90
8872;DHT22;4472;52.092;9.820;2023-12-20T02:23:55;6.60;99.90
8872;DHT22;4472;52.092;9.820;2023-12-20T02:26:42;6.60;99.90
8872;DHT22;4472;52.092;9.820;2023-12-20T02:29:30;6.60;99.90
8872;DHT22;4472;52.092;9.820;2023-12-20T02:32:18;6.70;99.90
8872;DHT22;4472;52.092;9.820;2023-12-20T02:35:06;6.60;99.90
8872;DHT22;4472;52.092;9.820;2023-12-20T02:37:53;6.60;99.90
8872;DHT22;4472;52.092;9.820;2023-12-20T02:40:42;6.60;99.90
8872;DHT22;4472;52.092;9.820;2023-12-20T02:43:29;6.60;99.90
8872;DHT22;4472;52.092;9.820;2023-12-20T02:46:17;6.60;99.90
8872;DHT22;4472;52.092;9.820;2023-12-20T02:49:06;6.70;99.90
8872;DHT22;4472;52.092;9.820;2023-12-20T02:51:53;6.70;99.90
8872;DHT22;4472;52.092;9.820;2023-12-20T02:54:40;6.70;99.90
8872;DHT22;4472;52.092;9.820;2023-12-20T02:57:28;6.70;99.90
8872;DHT22;4472;52.092;9.820;2023-12-20T03:00:16;6.70;99.90
8872;DHT22;4472;52.092;9.820;2023-12-20T03:03:04;6.60;99.90
8872;DHT22;4472;52.092;9.820;2023-12-20T03:05:52;6.60;99.90
8872;DHT22;4472;52.092;9.820;2023-12-20T03:08:39;6.60;99.90
8872;DHT22;4472;52.092;9.820;2023-12-20T03:11:27;6.60;99.90
8872;DHT22;4472;52.092;9.820;2023-12-20T03:14:15;6.60;99.90
8872;DHT22;4472;52.092;9.820;2023-12-20T03:17:03;6.60;99.90
8872;DHT22;4472;52.092;9.820;2023-12-20T03:19:50;6.50;99.90
8872;DHT22;4472;52.092;9.820;2023-12-20T03:22:37;6.50;99.90
8872;DHT22;4472;52.092;9.820;2023-12-20T03:25:24;6.50;99.90
8872;DHT22;4472;52.092;9.820;2023-12-20T03:28:12;6.40;99.90
8872;DHT22;4472;52.092;9.820;2023-12-20T03:31:03;6.40;99.90
8872;DHT22;4472;52.092;9.820;2023-12-20T03:33:50;6.30;99.90
8872;DHT22;4472;52.092;9.820;2023-12-20T03:36:40;6.30;99.90
8872;DHT22;4472;52.092;9.820;2023-12-20T03:39:27;6.20;99.90
8872;DHT22;4472;52.092;9.820;2023-12-20T03:42:15;6.20;99.90
8872;DHT22;4472;52.092;9.820;2023-12-20T03:45:02;6.10;99.90
8872;DHT22;4472;52.092;9.820;2023-12-20T03:47:50;6.00;99.90
8872;DHT22;4472;52.092;9.820;2023-12-20T03:50:40;6.00;99.90
8872;DHT22;4472;52.092;9.820;2023-12-20T03:53:28;6.00;99.90
8872;DHT22;4472;52.092;9.820;2023-12-20T03:56:15;5.90;99.90
8872;DHT22;4472;52.092;9.820;2023-12-20T03:59:02;5.90;99.90
8872;DHT22;4472;52.092;9.820;2023-12-20T04:01:50;5.80;99.90
8872;DHT22;4472;52.092;9.820;2023-12-20T04:04:39;5.80;99.90
8872;DHT22;4472;52.092;9.820;2023-12-20T04:07:26;5.80;99.90
8872;DHT22;4472;52.092;9.820;2023-12-20T04:10:13;5.80;99.90
8872;DHT22;4472;52.092;9.820;2023-12-20T04:13:00;5.90;99.90
8872;DHT22;4472;52.092;9.820;2023-12-20T04:15:47;5.90;99.90
8872;DHT22;4472;52.092;9.820;2023-12-20T04:18:36;6.00;99.90
8872;DHT22;4472;52.092;9.820;2023-12-20T04:21:25;6.10;99.90
8872;DHT22;4472;52.092;9.820;2023-12-20T04:24:12;6.20;99.90
8872;DHT22;4472;52.092;9.820;2023-12-20T04:26:59;6.20;99.90
8872;DHT22;4472;52.092;9.820;2023-12-20T04:29:47;6.30;99.90
8872;DHT22;4472;52.092;9.820;2023-12-20T04:32:34;6.30;99.90
8872;DHT22;4472;52.092;9.820;2023-12-20T04:35:21;6.40;99.90
8872;DHT22;4472;52.092;9.820;2023-12-20T04:38:09;6.40;99.90
8872;DHT22;4472;52.092;9.820;2023-12-20T04:40:57;6.50;99.90
8872;DHT22;4472;52.092;9.820;2023-12-20T04:43:44;6.50;99.90
8872;DHT22;4472;52.092;9.820;2023-12-20T04:46:31;6.50;99.90
8872;DHT22;4472;52.092;9.820;2023-12-20T04:49:18;6.50;99.90
8872;DHT22;4472;52.092;9.820;2023-12-20T04:52:05;6.40;99.90
8872;DHT22;4472;52.092;9.820;2023-12-20T04:54:54;6.50;99.90
8872;DHT22;4472;52.092;9.820;2023-12-20T04:57:41;6.50;99.90
8872;DHT22;4472;52.092;9.820;2023-12-20T05:00:28;6.50;99.90
8872;DHT22;4472;52.092;9.820;2023-12-20T05:03:16;6.60;99.90
8872;DHT22;4472;52.092;9.820;2023-12-20T05:06:03;6.50;99.90
8872;DHT22;4472;52.092;9.820;2023-12-20T05:08:50;6.60;99.90
8872;DHT22;4472;52.092;9.820;2023-12-20T05:11:39;6.60;99.90
8872;DHT22;4472;52.092;9.820;2023-12-20T05:14:26;6.60;99.90
8872;DHT22;4472;52.092;9.820;2023-12-20T05:19:43;6.60;99.90
8872;DHT22;4472;52.092;9.820;2023-12-20T05:22:30;6.60;99.90
8872;DHT22;4472;52.092;9.820;2023-12-20T05:25:17;6.60;99.90
8872;DHT22;4472;52.092;9.820;2023-12-20T05:28:06;6.70;99.90
8872;DHT22;4472;52.092;9.820;2023-12-20T05:30:54;6.70;99.90
8872;DHT22;4472;52.092;9.820;2023-12-20T05:33:41;6.70;99.90
8872;DHT22;4472;52.092;9.820;2023-12-20T05:36:29;6.70;99.90
8872;DHT22;4472;52.092;9.820;2023-12-20T05:39:16;6.70;99.90
8872;DHT22;4472;52.092;9.820;2023-12-20T05:42:04;6.70;99.90
8872;DHT22;4472;52.092;9.820;2023-12-20T05:44:52;6.70;99.90
8872;DHT22;4472;52.092;9.820;2023-12-20T05:47:40;6.70;99.90
8872;DHT22;4472;52.092;9.820;2023-12-20T05:50:27;6.70;99.90
8872;DHT22;4472;52.092;9.820;2023-12-20T05:53:15;6.70;99.90
8872;DHT22;4472;52.092;9.820;2023-12-20T05:56:02;6.70;99.90
8872;DHT22;4472;52.092;9.820;2023-12-20T05:58:50;6.70;99.90
8872;DHT22;4472;52.092;9.820;2023-12-20T06:01:39;6.70;99.90
8872;DHT22;4472;52.092;9.820;2023-12-20T06:04:26;6.70;99.90
8872;DHT22;4472;52.092;9.820;2023-12-20T06:07:14;6.70;99.90
8872;DHT22;4472;52.092;9.820;2023-12-20T06:10:02;6.70;99.90
8872;DHT22;4472;52.092;9.820;2023-12-20T06:12:49;6.70;99.90
8872;DHT22;4472;52.092;9.820;2023-12-20T06:15:37;6.70;99.90
8872;DHT22;4472;52.092;9.820;2023-12-20T06:18:25;6.70;99.90
8872;DHT22;4472;52.092;9.820;2023-12-20T06:21:13;6.70;99.90
8872;DHT22;4472;52.092;9.820;2023-12-20T06:24:00;6.70;99.90
8872;DHT22;4472;52.092;9.820;2023-12-20T06:26:48;6.70;99.90
8872;DHT22;4472;52.092;9.820;2023-12-20T06:29:35;6.70;99.90
8872;DHT22;4472;52.092;9.820;2023-12-20T06:32:23;6.80;99.90
8872;DHT22;4472;52.092;9.820;2023-12-20T06:35:12;6.70;99.90
8872;DHT22;4472;52.092;9.820;2023-12-20T06:37:59;6.70;99.90
8872;DHT22;4472;52.092;9.820;2023-12-20T06:40:47;6.70;99.90
8872;DHT22;4472;52.092;9.820;2023-12-20T06:43:34;6.80;99.90
8872;DHT22;4472;52.092;9.820;2023-12-20T06:46:21;6.70;99.90
8872;DHT22;4472;52.092;9.820;2023-12-20T06:49:09;6.70;99.90
8872;DHT22;4472;52.092;9.820;2023-12-20T06:51:57;6.70;99.90
8872;DHT22;4472;52.092;9.820;2023-12-20T06:54:45;6.80;99.90
8872;DHT22;4472;52.092;9.820;2023-12-20T06:57:32;6.70;99.90
8872;DHT22;4472;52.092;9.820;2023-12-20T07:00:21;6.70;99.90
8872;DHT22;4472;52.092;9.820;2023-12-20T07:03:09;6.70;99.90
8872;DHT22;4472;52.092;9.820;2023-12-20T07:05:56;6.80;99.90
8872;DHT22;4472;52.092;9.820;2023-12-20T07:08:45;6.70;99.90
8872;DHT22;4472;52.092;9.820;2023-12-20T07:11:33;6.70;99.90
8872;DHT22;4472;52.092;9.820;2023-12-20T07:14:22;6.70;99.90
8872;DHT22;4472;52.092;9.820;2023-12-20T07:17:10;6.70;99.90
8872;DHT22;4472;52.092;9.820;2023-12-20T07:19:59;6.60;99.90
8872;DHT22;4472;52.092;9.820;2023-12-20T07:22:49;6.60;99.90
8872;DHT22;4472;52.092;9.820;2023-12-20T07:25:37;6.50;99.90
8872;DHT22;4472;52.092;9.820;2023-12-20T07:28:25;6.60;99.90
8872;DHT22;4472;52.092;9.820;2023-12-20T07:31:12;6.60;99.90
8872;DHT22;4472;52.092;9.820;2023-12-20T07:33:59;6.60;99.90
8872;DHT22;4472;52.092;9.820;2023-12-20T07:36:46;6.60;99.90
8872;DHT22;4472;52.092;9.820;2023-12-20T07:39:33;6.60;99.90
8872;DHT22;4472;52.092;9.820;2023-12-20T07:42:22;6.60;99.90
8872;DHT22;4472;52.092;9.820;2023-12-20T07:45:09;6.90;99.90
8872;DHT22;4472;52.092;9.820;2023-12-20T07:47:57;6.60;99.90
8872;DHT22;4472;52.092;9.820;2023-12-20T07:50:44;6.60;99.90
8872;DHT22;4472;52.092;9.820;2023-12-20T07:53:31;6.70;99.90
8872;DHT22;4472;52.092;9.820;2023-12-20T07:56:19;6.70;99.90
8872;DHT22;4472;52.092;9.820;2023-12-20T07:59:08;6.70;99.90
8872;DHT22;4472;52.092;9.820;2023-12-20T08:01:55;6.70;99.90
8872;DHT22;4472;52.092;9.820;2023-12-20T08:04:42;6.70;99.90
8872;DHT22;4472;52.092;9.820;2023-12-20T08:07:29;6.70;99.90
8872;DHT22;4472;52.092;9.820;2023-12-20T08:10:17;6.70;99.90
8872;DHT22;4472;52.092;9.820;2023-12-20T08:13:05;6.70;99.90
8872;DHT22;4472;52.092;9.820;2023-12-20T08:15:54;6.70;99.90
8872;DHT22;4472;52.092;9.820;2023-12-20T08:18:41;6.80;99.90
8872;DHT22;4472;52.092;9.820;2023-12-20T08:21:29;6.80;99.90
8872;DHT22;4472;52.092;9.820;2023-12-20T08:24:16;6.80;99.90
8872;DHT22;4472;52.092;9.820;2023-12-20T08:27:03;6.80;99.90
8872;DHT22;4472;52.092;9.820;2023-12-20T08:29:50;6.90;99.90
8872;DHT22;4472;52.092;9.820;2023-12-20T08:32:39;6.90;99.90
8872;DHT22;4472;52.092;9.820;2023-12-20T08:35:26;7.00;99.90
8872;DHT22;4472;52.092;9.820;2023-12-20T08:38:13;7.00;99.90
8872;DHT22;4472;52.092;9.820;2023-12-20T08:41:01;7.00;99.90
8872;DHT22;4472;52.092;9.820;2023-12-20T08:43:49;7.00;99.90
8872;DHT22;4472;52.092;9.820;2023-12-20T08:46:36;7.00;99.90
8872;DHT22;4472;52.092;9.820;2023-12-20T08:49:25;7.00;99.90
8872;DHT22;4472;52.092;9.820;2023-12-20T08:52:12;7.00;99.90
8872;DHT22;4472;52.092;9.820;2023-12-20T08:54:59;7.00;99.90
8872;DHT22;4472;52.092;9.820;2023-12-20T08:57:46;7.00;99.90
8872;DHT22;4472;52.092;9.820;2023-12-20T09:00:34;7.00;99.90
8872;DHT22;4472;52.092;9.820;2023-12-20T09:03:21;7.00;99.90
8872;DHT22;4472;52.092;9.820;2023-12-20T09:06:09;7.00;99.90
8872;DHT22;4472;52.092;9.820;2023-12-20T09:08:56;7.00;99.90
8872;DHT22;4472;52.092;9.820;2023-12-20T09:11:44;7.10;99.90
8872;DHT22;4472;52.092;9.820;2023-12-20T09:14:32;7.10;99.90
8872;DHT22;4472;52.092;9.820;2023-12-20T09:17:19;7.10;99.90
8872;DHT22;4472;52.092;9.820;2023-12-20T09:20:07;7.20;99.90
8872;DHT22;4472;52.092;9.820;2023-12-20T09:22:55;7.20;99.90
8872;DHT22;4472;52.092;9.820;2023-12-20T09:25:43;7.20;99.90
8872;DHT22;4472;52.092;9.820;2023-12-20T09:28:30;7.30;99.90
8872;DHT22;4472;52.092;9.820;2023-12-20T09:31:22;7.30;99.90
8872;DHT22;4472;52.092;9.820;2023-12-20T09:34:09;7.30;99.90
8872;DHT22;4472;52.092;9.820;2023-12-20T09:36:56;7.20;99.90
8872;DHT22;4472;52.092;9.820;2023-12-20T09:39:45;7.30;99.90
8872;DHT22;4472;52.092;9.820;2023-12-20T09:42:38;7.20;99.90
8872;DHT22;4472;52.092;9.820;2023-12-20T09:45:26;7.20;99.90
8872;DHT22;4472;52.092;9.820;2023-12-20T09:48:13;7.20;99.90
8872;DHT22;4472;52.092;9.820;2023-12-20T09:51:04;7.30;99.90
8872;DHT22;4472;52.092;9.820;2023-12-20T09:53:54;7.30;99.90
8872;DHT22;4472;52.092;9.820;2023-12-20T09:56:44;7.30;99.90
8872;DHT22;4472;52.092;9.820;2023-12-20T09:59:31;7.30;99.90
8872;DHT22;4472;52.092;9.820;2023-12-20T10:02:20;7.40;99.90
8872;DHT22;4472;52.092;9.820;2023-12-20T10:05:16;7.40;99.90
8872;DHT22;4472;52.092;9.820;2023-12-20T10:08:05;7.40;99.90
8872;DHT22;4472;52.092;9.820;2023-12-20T10:10:52;7.40;99.90
8872;DHT22;4472;52.092;9.820;2023-12-20T10:13:45;7.40;99.90
8872;DHT22;4472;52.092;9.820;2023-12-20T10:16:35;7.40;99.90
8872;DHT22;4472;52.092;9.820;2023-12-20T10:19:22;7.40;99.90
8872;DHT22;4472;52.092;9.820;2023-12-20T10:22:10;7.50;99.90
8872;DHT22;4472;52.092;9.820;2023-12-20T10:24:57;7.50;99.90
8872;DHT22;4472;52.092;9.820;2023-12-20T10:27:45;7.50;99.90
8872;DHT22;4472;52.092;9.820;2023-12-20T10:30:34;7.50;99.90
8872;DHT22;4472;52.092;9.820;2023-12-20T10:33:24;7.50;99.90
8872;DHT22;4472;52.092;9.820;2023-12-20T10:36:11;7.50;99.90
8872;DHT22;4472;52.092;9.820;2023-12-20T10:38:59;7.50;99.90
8872;DHT22;4472;52.092;9.820;2023-12-20T10:41:50;7.50;99.90
8872;DHT22;4472;52.092;9.820;2023-12-20T10:44:38;7.40;99.90
8872;DHT22;4472;52.092;9.820;2023-12-20T10:47:28;7.50;99.90
8872;DHT22;4472;52.092;9.820;2023-12-20T10:50:17;7.50;99.90
8872;DHT22;4472;52.092;9.820;2023-12-20T10:53:06;7.50;99.90
8872;DHT22;4472;52.092;9.820;2023-12-20T10:55:55;7.50;99.90
8872;DHT22;4472;52.092;9.820;2023-12-20T10:58:44;7.60;99.90
8872;DHT22;4472;52.092;9.820;2023-12-20T11:01:32;7.60;99.90
8872;DHT22;4472;52.092;9.820;2023-12-20T11:04:25;7.60;99.90
8872;DHT22;4472;52.092;9.820;2023-12-20T11:07:33;7.60;99.90
8872;DHT22;4472;52.092;9.820;2023-12-20T11:10:29;7.70;99.90
8872;DHT22;4472;52.092;9.820;2023-12-20T11:13:22;7.60;99.90
8872;DHT22;4472;52.092;9.820;2023-12-20T11:16:09;7.60;99.90
8872;DHT22;4472;52.092;9.820;2023-12-20T11:18:57;7.60;99.90
8872;DHT22;4472;52.092;9.820;2023-12-20T11:21:46;7.50;99.90
8872;DHT22;4472;52.092;9.820;2023-12-20T11:24:33;7.50;99.90
8872;DHT22;4472;52.092;9.820;2023-12-20T11:27:24;7.50;99.90
8872;DHT22;4472;52.092;9.820;2023-12-20T11:30:12;7.40;99.90
8872;DHT22;4472;52.092;9.820;2023-12-20T11:33:01;7.40;99.90
8872;DHT22;4472;52.092;9.820;2023-12-20T11:35:48;7.40;99.90
8872;DHT22;4472;52.092;9.820;2023-12-20T11:38:53;7.40;99.90
8872;DHT22;4472;52.092;9.820;2023-12-20T11:41:44;7.40;99.90
8872;DHT22;4472;52.092;9.820;2023-12-20T11:44:31;7.40;99.90
8872;DHT22;4472;52.092;9.820;2023-12-20T11:47:20;7.40;99.90
8872;DHT22;4472;52.092;9.820;2023-12-20T11:50:08;7.50;99.90
8872;DHT22;4472;52.092;9.820;2023-12-20T11:52:56;7.50;99.90
8872;DHT22;4472;52.092;9.820;2023-12-20T11:55:47;7.50;99.90
8872;DHT22;4472;52.092;9.820;2023-12-20T11:58:36;7.70;99.90
8872;DHT22;4472;52.092;9.820;2023-12-20T12:01:24;7.80;99.90
8872;DHT22;4472;52.092;9.820;2023-12-20T12:04:11;7.70;99.90
8872;DHT22;4472;52.092;9.820;2023-12-20T12:06:59;7.70;99.90
8872;DHT22;4472;52.092;9.820;2023-12-20T12:09:46;7.70;99.90
8872;DHT22;4472;52.092;9.820;2023-12-20T12:12:35;7.70;99.90
8872;DHT22;4472;52.092;9.820;2023-12-20T12:15:22;7.70;99.90
8872;DHT22;4472;52.092;9.820;2023-12-20T12:18:10;7.70;99.90
8872;DHT22;4472;52.092;9.820;2023-12-20T12:21:00;7.70;99.90
8872;DHT22;4472;52.092;9.820;2023-12-20T12:23:48;7.70;99.90
8872;DHT22;4472;52.092;9.820;2023-12-20T12:26:35;7.70;99.90
8872;DHT22;4472;52.092;9.820;2023-12-20T12:29:24;7.70;99.90
8872;DHT22;4472;52.092;9.820;2023-12-20T12:32:11;7.70;99.90
8872;DHT22;4472;52.092;9.820;2023-12-20T12:34:58;7.70;99.90
8872;DHT22;4472;52.092;9.820;2023-12-20T12:37:46;7.60;99.90
8872;DHT22;4472;52.092;9.820;2023-12-20T12:40:35;7.40;99.90
8872;DHT22;4472;52.092;9.820;2023-12-20T12:43:22;7.30;99.90
8872;DHT22;4472;52.092;9.820;2023-12-20T12:46:11;7.20;99.90
8872;DHT22;4472;52.092;9.820;2023-12-20T12:48:58;6.50;99.90
8872;DHT22;4472;52.092;9.820;2023-12-20T12:51:46;6.00;99.90
8872;DHT22;4472;52.092;9.820;2023-12-20T12:54:33;5.70;99.90
8872;DHT22;4472;52.092;9.820;2023-12-20T12:57:24;5.50;99.90
8872;DHT22;4472;52.092;9.820;2023-12-20T13:00:12;5.30;99.90
8872;DHT22;4472;52.092;9.820;2023-12-20T13:03:01;5.20;99.90
8872;DHT22;4472;52.092;9.820;2023-12-20T13:05:49;5.20;99.90
8872;DHT22;4472;52.092;9.820;2023-12-20T13:08:37;5.20;99.90
8872;DHT22;4472;52.092;9.820;2023-12-20T13:11:24;5.20;99.90
8872;DHT22;4472;52.092;9.820;2023-12-20T13:14:11;5.30;99.90
8872;DHT22;4472;52.092;9.820;2023-12-20T13:17:01;5.30;99.90
8872;DHT22;4472;52.092;9.820;2023-12-20T13:19:51;5.40;99.90
8872;DHT22;4472;52.092;9.820;2023-12-20T13:22:39;5.60;99.90
8872;DHT22;4472;52.092;9.820;2023-12-20T13:25:26;5.50;99.90
8872;DHT22;4472;52.092;9.820;2023-12-20T13:28:13;5.60;99.90
8872;DHT22;4472;52.092;9.820;2023-12-20T13:31:01;5.70;99.90
8872;DHT22;4472;52.092;9.820;2023-12-20T13:33:48;5.70;99.90
8872;DHT22;4472;52.092;9.820;2023-12-20T13:36:38;5.70;99.90
8872;DHT22;4472;52.092;9.820;2023-12-20T13:39:25;5.80;99.90
8872;DHT22;4472;52.092;9.820;2023-12-20T13:42:13;5.80;99.90
8872;DHT22;4472;52.092;9.820;2023-12-20T13:45:00;5.90;99.90
8872;DHT22;4472;52.092;9.820;2023-12-20T13:47:47;6.00;99.90
8872;DHT22;4472;52.092;9.820;2023-12-20T13:50:35;6.00;99.90
8872;DHT22;4472;52.092;9.820;2023-12-20T13:53:24;6.10;99.90
8872;DHT22;4472;52.092;9.820;2023-12-20T13:56:11;6.20;99.90
8872;DHT22;4472;52.092;9.820;2023-12-20T13:58:58;6.20;99.90
8872;DHT22;4472;52.092;9.820;2023-12-20T14:01:45;6.20;99.90
8872;DHT22;4472;52.092;9.820;2023-12-20T14:04:33;6.30;99.90
8872;DHT22;4472;52.092;9.820;2023-12-20T14:07:20;6.30;99.90
8872;DHT22;4472;52.092;9.820;2023-12-20T14:10:10;6.30;99.90
8872;DHT22;4472;52.092;9.820;2023-12-20T14:12:57;6.40;99.90
8872;DHT22;4472;52.092;9.820;2023-12-20T14:15:45;6.40;99.90
8872;DHT22;4472;52.092;9.820;2023-12-20T14:18:32;6.50;99.90
8872;DHT22;4472;52.092;9.820;2023-12-20T14:21:20;6.50;99.90
8872;DHT22;4472;52.092;9.820;2023-12-20T14:24:07;6.50;99.90
8872;DHT22;4472;52.092;9.820;2023-12-20T14:26:56;6.50;99.90
8872;DHT22;4472;52.092;9.820;2023-12-20T14:29:44;6.50;99.90
8872;DHT22;4472;52.092;9.820;2023-12-20T14:32:34;6.50;99.90
8872;DHT22;4472;52.092;9.820;2023-12-20T14:35:22;6.50;99.90
8872;DHT22;4472;52.092;9.820;2023-12-20T14:38:10;6.50;99.90
8872;DHT22;4472;52.092;9.820;2023-12-20T14:40:59;6.50;99.90
8872;DHT22;4472;52.092;9.820;2023-12-20T14:43:48;6.50;99.90
8872;DHT22;4472;52.092;9.820;2023-12-20T14:46:35;6.50;99.90
8872;DHT22;4472;52.092;9.820;2023-12-20T14:49:23;6.50;99.90
8872;DHT22;4472;52.092;9.820;2023-12-20T14:52:11;6.50;99.90
8872;DHT22;4472;52.092;9.820;2023-12-20T14:54:59;6.40;99.90
8872;DHT22;4472;52.092;9.820;2023-12-20T14:57:47;6.40;99.90
8872;DHT22;4472;52.092;9.820;2023-12-20T15:00:37;6.40;99.90
8872;DHT22;4472;52.092;9.820;2023-12-20T15:03:24;6.40;99.90
8872;DHT22;4472;52.092;9.820;2023-12-20T15:06:11;4.60;99.90
8872;DHT22;4472;52.092;9.820;2023-12-20T15:08:59;6.40;99.90
8872;DHT22;4472;52.092;9.820;2023-12-20T15:11:48;6.30;99.90
8872;DHT22;4472;52.092;9.820;2023-12-20T15:14:35;6.30;99.90
8872;DHT22;4472;52.092;9.820;2023-12-20T15:17:23;6.30;99.90
8872;DHT22;4472;52.092;9.820;2023-12-20T15:20:12;6.30;99.90
8872;DHT22;4472;52.092;9.820;2023-12-20T15:22:59;6.30;99.90
8872;DHT22;4472;52.092;9.820;2023-12-20T15:25:52;6.30;99.90
8872;DHT22;4472;52.092;9.820;2023-12-20T15:28:40;6.30;99.90
8872;DHT22;4472;52.092;9.820;2023-12-20T15:31:27;6.30;99.90
8872;DHT22;4472;52.092;9.820;2023-12-20T15:34:16;6.30;99.90
8872;DHT22;4472;52.092;9.820;2023-12-20T15:37:03;6.30;99.90
8872;DHT22;4472;52.092;9.820;2023-12-20T15:39:50;6.30;99.90
8872;DHT22;4472;52.092;9.820;2023-12-20T15:42:38;6.30;99.90
8872;DHT22;4472;52.092;9.820;2023-12-20T15:45:26;6.40;99.90
8872;DHT22;4472;52.092;9.820;2023-12-20T15:48:13;6.40;99.90
8872;DHT22;4472;52.092;9.820;2023-12-20T15:51:06;6.40;99.90
8872;DHT22;4472;52.092;9.820;2023-12-20T15:53:54;6.30;99.90
8872;DHT22;4472;52.092;9.820;2023-12-20T15:56:41;6.40;99.90
8872;DHT22;4472;52.092;9.820;2023-12-20T15:59:30;6.30;99.90
8872;DHT22;4472;52.092;9.820;2023-12-20T16:02:17;6.30;99.90
8872;DHT22;4472;52.092;9.820;2023-12-20T16:05:05;6.40;99.90
8872;DHT22;4472;52.092;9.820;2023-12-20T16:07:54;6.40;99.90
8872;DHT22;4472;52.092;9.820;2023-12-20T16:10:42;6.30;99.90
8872;DHT22;4472;52.092;9.820;2023-12-20T16:13:29;6.30;99.90
8872;DHT22;4472;52.092;9.820;2023-12-20T16:16:16;6.30;99.90
8872;DHT22;4472;52.092;9.820;2023-12-20T16:19:04;6.30;99.90
8872;DHT22;4472;52.092;9.820;2023-12-20T16:21:51;6.30;99.90
8872;DHT22;4472;52.092;9.820;2023-12-20T16:24:40;6.30;99.90
8872;DHT22;4472;52.092;9.820;2023-12-20T16:27:28;6.30;99.90
8872;DHT22;4472;52.092;9.820;2023-12-20T16:30:15;6.30;99.90
8872;DHT22;4472;52.092;9.820;2023-12-20T16:33:03;6.30;99.90
8872;DHT22;4472;52.092;9.820;2023-12-20T16:35:50;6.30;99.90
8872;DHT22;4472;52.092;9.820;2023-12-20T16:38:37;6.30;99.90
8872;DHT22;4472;52.092;9.820;2023-12-20T16:41:26;6.30;99.90
8872;DHT22;4472;52.092;9.820;2023-12-20T16:44:13;6.30;99.90
8872;DHT22;4472;52.092;9.820;2023-12-20T16:47:01;6.20;99.90
8872;DHT22;4472;52.092;9.820;2023-12-20T16:49:48;6.20;99.90
8872;DHT22;4472;52.092;9.820;2023-12-20T16:52:35;6.20;99.90
8872;DHT22;4472;52.092;9.820;2023-12-20T16:55:23;6.20;99.90
8872;DHT22;4472;52.092;9.820;2023-12-20T16:58:11;6.20;99.90
8872;DHT22;4472;52.092;9.820;2023-12-20T17:00:59;6.20;99.90
8872;DHT22;4472;52.092;9.820;2023-12-20T17:03:46;6.10;99.90
8872;DHT22;4472;52.092;9.820;2023-12-20T17:06:34;6.10;99.90
8872;DHT22;4472;52.092;9.820;2023-12-20T17:09:21;6.10;99.90
8872;DHT22;4472;52.092;9.820;2023-12-20T17:12:08;6.10;99.90
8872;DHT22;4472;52.092;9.820;2023-12-20T17:14:57;6.00;99.90
8872;DHT22;4472;52.092;9.820;2023-12-20T17:17:46;6.00;99.90
8872;DHT22;4472;52.092;9.820;2023-12-20T17:20:33;6.00;99.90
8872;DHT22;4472;52.092;9.820;2023-12-20T17:23:20;6.10;99.90
8872;DHT22;4472;52.092;9.820;2023-12-20T17:26:08;6.10;99.90
8872;DHT22;4472;52.092;9.820;2023-12-20T17:28:55;6.10;99.90
8872;DHT22;4472;52.092;9.820;2023-12-20T17:31:43;6.20;99.90
8872;DHT22;4472;52.092;9.820;2023-12-20T17:34:31;6.20;99.90
8872;DHT22;4472;52.092;9.820;2023-12-20T17:37:18;6.30;99.90
8872;DHT22;4472;52.092;9.820;2023-12-20T17:40:06;6.20;99.90
8872;DHT22;4472;52.092;9.820;2023-12-20T17:42:54;6.20;99.90
8872;DHT22;4472;52.092;9.820;2023-12-20T17:45:41;6.20;99.90
8872;DHT22;4472;52.092;9.820;2023-12-20T17:48:30;6.20;99.90
8872;DHT22;4472;52.092;9.820;2023-12-20T17:51:17;7.70;99.90
8872;DHT22;4472;52.092;9.820;2023-12-20T17:54:04;6.30;99.90
8872;DHT22;4472;52.092;9.820;2023-12-20T17:56:51;6.40;99.90
8872;DHT22;4472;52.092;9.820;2023-12-20T17:59:40;6.40;99.90
8872;DHT22;4472;52.092;9.820;2023-12-20T18:02:27;6.40;99.90
8872;DHT22;4472;52.092;9.820;2023-12-20T18:05:16;6.50;99.90
8872;DHT22;4472;52.092;9.820;2023-12-20T18:08:03;6.40;99.90
8872;DHT22;4472;52.092;9.820;2023-12-20T18:10:51;6.40;99.90
8872;DHT22;4472;52.092;9.820;2023-12-20T18:13:38;6.40;99.90
8872;DHT22;4472;52.092;9.820;2023-12-20T18:16:25;6.40;99.90
8872;DHT22;4472;52.092;9.820;2023-12-20T18:19:12;6.40;99.90
8872;DHT22;4472;52.092;9.820;2023-12-20T18:22:01;6.40;99.90
8872;DHT22;4472;52.092;9.820;2023-12-20T18:24:48;6.40;99.90
8872;DHT22;4472;52.092;9.820;2023-12-20T18:27:36;6.40;99.90
8872;DHT22;4472;52.092;9.820;2023-12-20T18:30:23;6.40;99.90
8872;DHT22;4472;52.092;9.820;2023-12-20T18:33:10;6.40;99.90
8872;DHT22;4472;52.092;9.820;2023-12-20T18:35:57;6.30;99.90